Time;durP1;ratioP1;P1;durP2;ratioP2;P2;SDS_P1;SDS_P2;PMS_P1;PMS_P2;Temp;Humidity;BMP_temperature;BMP_pressure;BME280_temperature;BME280_humidity;BME280_pressure;Samples;Min_cycle;Max_cycle;Signal;HPM_P1;HPM_P2
2022/12/15 00:39:33;;;;;;;;;;;;;;;;;;;;;
2022/12/15 00:41:59;;;;;;;0.20;0.10;;;;;;;;;;5037965;22;20123;-81
2022/12/15 00:44:25;;;;;;;0.43;0.40;;;;;;;;;;5036103;28;20049;-80
2022/12/15 00:46:54;;;;;;;0.20;0.10;;;;;;;;;;5037004;28;20488;-82
2022/12/15 01:22:27;;;;;;;0.20;0.10;;;;;;;;;;5025189;28;20284;-82
2022/12/15 01:24:53;;;;;;;0.20;0.10;;;;;;;;;;5028382;28;20051;-78
2022/12/15 01:27:19;;;;;;;0.20;0.10;;;;;;;;;;5029795;28;20132;-81
2022/12/15 01:29:45;;;;;;;0.20;0.10;;;;;;;;;;5023588;28;20040;-81
2022/12/15 01:32:11;;;;;;;0.20;0.10;;;;;;;;;;5027364;28;20037;-78
2022/12/15 01:34:37;;;;;;;0.20;0.10;;;;;;;;;;5026754;28;20079;-81
2022/12/15 01:37:03;;;;;;;0.20;0.10;;;;;;;;;;5031250;28;20041;-80
2022/12/15 01:40:43;;;;;;;0.20;0.10;;;;;;;;;;5025761;28;20034;-81
2022/12/15 01:42:15;;;;;;;0.20;0.10;;;;;;;;;;5026993;28;20116;-81
2022/12/15 01:44:43;;;;;;;0.20;0.10;;;;;;;;;;5010928;28;20141;-80
2022/12/15 01:47:11;;;;;;;0.20;0.10;;;;;;;;;;5029086;28;20399;-81
2022/12/15 01:49:38;;;;;;;0.20;0.10;;;;;;;;;;5026709;28;20049;-81
2022/12/15 01:52:05;;;;;;;0.20;0.10;;;;;;;;;;5028971;28;20044;-79
2022/12/15 01:54:31;;;;;;;0.20;0.10;;;;;;;;;;5026883;28;20044;-81
2022/12/15 01:57:01;;;;;;;0.20;0.10;;;;;;;;;;5021949;28;20037;-82
2022/12/15 01:59:30;;;;;;;0.20;0.10;;;;;;;;;;5024160;28;20037;-80
2022/12/15 02:01:56;;;;;;;0.20;0.20;;;;;;;;;;5023865;28;20033;-79
2022/12/15 02:04:23;;;;;;;0.20;0.10;;;;;;;;;;5008727;28;20113;-81
2022/12/15 02:06:49;;;;;;;0.20;0.10;;;;;;;;;;5031887;28;20552;-78
2022/12/15 02:09:16;;;;;;;0.20;0.10;;;;;;;;;;5025569;28;20097;-82
2022/12/15 02:11:57;;;;;;;0.20;0.10;;;;;;;;;;5023380;28;20527;-81
2022/12/15 02:14:27;;;;;;;0.20;0.10;;;;;;;;;;5010235;28;20041;-82
2022/12/15 02:17:03;;;;;;;0.20;0.10;;;;;;;;;;5026819;28;20037;-82
2022/12/15 02:19:42;;;;;;;0.20;0.10;;;;;;;;;;5006271;28;20033;-80
2022/12/15 02:22:23;;;;;;;0.20;0.10;;;;;;;;;;5019410;28;20033;-81
2022/12/15 02:24:52;;;;;;;0.20;0.10;;;;;;;;;;5024011;28;20113;-82
2022/12/15 02:27:30;;;;;;;0.45;0.45;;;;;;;;;;5023326;28;20325;-81
2022/12/15 02:30:15;;;;;;;0.20;0.10;;;;;;;;;;5022530;28;20041;-80
2022/12/15 02:32:54;;;;;;;0.20;0.10;;;;;;;;;;5022394;28;20059;-80
2022/12/15 02:35:24;;;;;;;0.20;0.10;;;;;;;;;;5023543;28;20463;-81
2022/12/15 02:37:50;;;;;;;0.20;0.10;;;;;;;;;;5024341;28;20045;-80
2022/12/15 02:40:16;;;;;;;0.20;0.10;;;;;;;;;;5017102;28;20233;-81
2022/12/15 02:42:45;;;;;;;0.20;0.10;;;;;;;;;;5022650;28;20033;-81
2022/12/15 02:45:16;;;;;;;0.20;0.10;;;;;;;;;;5022437;28;20123;-80
2022/12/15 02:47:45;;;;;;;0.20;0.20;;;;;;;;;;5019117;28;20037;-81
2022/12/15 02:50:18;;;;;;;0.20;0.10;;;;;;;;;;5021610;28;20591;-81
2022/12/15 02:53:00;;;;;;;0.20;0.10;;;;;;;;;;5015577;28;20148;-80
2022/12/15 02:55:45;;;;;;;0.20;0.10;;;;;;;;;;5022337;28;20187;-80
2022/12/15 02:58:31;;;;;;;0.20;0.10;;;;;;;;;;5004548;28;20869;-80
2022/12/15 03:00:59;;;;;;;0.20;0.10;;;;;;;;;;5005202;28;20091;-80
2022/12/15 03:03:26;;;;;;;0.20;0.10;;;;;;;;;;5022401;28;20038;-81
2022/12/15 03:05:53;;;;;;;0.47;0.47;;;;;;;;;;5005658;28;20128;-80
2022/12/15 03:08:20;;;;;;;0.20;0.10;;;;;;;;;;5008584;28;20524;-80
2022/12/15 03:10:46;;;;;;;0.20;0.10;;;;;;;;;;5022904;28;20628;-81
2022/12/15 03:13:13;;;;;;;0.20;0.10;;;;;;;;;;5037024;28;20098;-81
2022/12/15 03:15:39;;;;;;;0.20;0.10;;;;;;;;;;5021160;28;20045;-81
2022/12/15 03:18:05;;;;;;;0.20;0.10;;;;;;;;;;5005176;28;20041;-82
2022/12/15 03:20:31;;;;;;;0.20;0.10;;;;;;;;;;5020523;28;20037;-80
2022/12/15 03:22:57;;;;;;;0.20;0.10;;;;;;;;;;5022020;28;20523;-80
2022/12/15 03:25:23;;;;;;;0.20;0.10;;;;;;;;;;5019512;28;20128;-82
2022/12/15 03:27:49;;;;;;;1.00;0.85;;;;;;;;;;5019882;28;20077;-81
2022/12/15 03:30:15;;;;;;;0.20;0.17;;;;;;;;;;5024608;28;20041;-82
2022/12/15 03:32:41;;;;;;;2.10;1.05;;;;;;;;;;5025770;28;20037;-81
2022/12/15 03:35:08;;;;;;;0.20;0.10;;;;;;;;;;5029980;28;20034;-82
2022/12/15 03:37:33;;;;;;;0.20;0.10;;;;;;;;;;5019127;28;20034;-82
2022/12/15 03:39:59;;;;;;;0.20;0.10;;;;;;;;;;5011041;28;20042;-82
2022/12/15 03:45:10;;;;;;;0.20;0.17;;;;;;;;;;5023400;28;20450;-82
2022/12/15 03:47:40;;;;;;;0.20;0.10;;;;;;;;;;5020754;28;20073;-82
2022/12/15 03:50:06;;;;;;;0.20;0.10;;;;;;;;;;5020384;28;20052;-82
2022/12/15 03:52:32;;;;;;;0.20;0.10;;;;;;;;;;5023823;28;20049;-82
2022/12/15 03:54:58;;;;;;;0.20;0.10;;;;;;;;;;5006858;28;20111;-81
2022/12/15 03:57:24;;;;;;;0.20;0.10;;;;;;;;;;5007805;28;20085;-82
2022/12/15 03:59:50;;;;;;;0.20;0.10;;;;;;;;;;5024329;28;20547;-78
2022/12/15 04:02:16;;;;;;;0.20;0.13;;;;;;;;;;5021119;28;20092;-79
2022/12/15 04:04:42;;;;;;;0.20;0.10;;;;;;;;;;5027238;28;20053;-80
2022/12/15 04:07:09;;;;;;;0.20;0.10;;;;;;;;;;5026835;28;20411;-81
2022/12/15 04:09:35;;;;;;;0.20;0.10;;;;;;;;;;5025821;28;20041;-80
2022/12/15 04:12:02;;;;;;;0.20;0.10;;;;;;;;;;5020624;28;20045;-81
2022/12/15 04:14:28;;;;;;;0.20;0.10;;;;;;;;;;5005917;28;20051;-80
2022/12/15 04:16:55;;;;;;;0.20;0.10;;;;;;;;;;5023012;28;20046;-81
2022/12/15 04:22:05;;;;;;;0.20;0.10;;;;;;;;;;5023332;28;20088;-81
2022/12/15 05:33:15;;;;;;;0.20;0.10;;;;;;;;;;5024350;28;20053;-79
2022/12/15 05:35:41;;;;;;;0.20;0.10;;;;;;;;;;5027202;28;20538;-82
2022/12/15 05:38:07;;;;;;;0.20;0.10;;;;;;;;;;5031004;28;20137;-81
2022/12/15 05:40:33;;;;;;;0.20;0.10;;;;;;;;;;5028503;28;20034;-81
2022/12/15 05:42:59;;;;;;;0.20;0.10;;;;;;;;;;5023093;28;20034;-81
2022/12/15 05:45:26;;;;;;;0.20;0.10;;;;;;;;;;5005665;28;20068;-81
2022/12/15 05:47:52;;;;;;;0.20;0.10;;;;;;;;;;5023632;28;20042;-81
2022/12/15 05:50:18;;;;;;;0.20;0.10;;;;;;;;;;5021654;28;20040;-82
2022/12/15 05:52:44;;;;;;;0.20;0.10;;;;;;;;;;5007700;28;20049;-81
2022/12/15 05:55:10;;;;;;;0.20;0.10;;;;;;;;;;5024898;28;20037;-81
2022/12/15 05:57:36;;;;;;;0.20;0.10;;;;;;;;;;5028337;28;20458;-81
2022/12/15 06:00:03;;;;;;;0.20;0.10;;;;;;;;;;5019138;28;20093;-81
2022/12/15 06:02:29;;;;;;;0.20;0.10;;;;;;;;;;5026603;28;20099;-81
2022/12/15 06:04:55;;;;;;;0.20;0.10;;;;;;;;;;5009529;28;20042;-78
2022/12/15 06:07:21;;;;;;;0.20;0.10;;;;;;;;;;5029209;28;20037;-80
2022/12/15 06:09:47;;;;;;;0.20;0.10;;;;;;;;;;5027777;28;20049;-81
2022/12/15 06:12:13;;;;;;;0.20;0.10;;;;;;;;;;5018879;28;20037;-80
2022/12/15 06:14:39;;;;;;;0.20;0.10;;;;;;;;;;5015019;28;20030;-79
2022/12/15 06:17:05;;;;;;;0.20;0.10;;;;;;;;;;5014414;28;20099;-81
2022/12/15 06:19:31;;;;;;;0.20;0.10;;;;;;;;;;5010973;28;20064;-80
2022/12/15 06:21:57;;;;;;;0.20;0.10;;;;;;;;;;5010729;28;20124;-80
2022/12/15 06:24:24;;;;;;;0.20;0.10;;;;;;;;;;5012262;28;20510;-80
2022/12/15 06:26:50;;;;;;;0.20;0.10;;;;;;;;;;5025773;28;20041;-80
2022/12/15 06:29:17;;;;;;;0.20;0.10;;;;;;;;;;5027067;28;20056;-80
2022/12/15 06:31:43;;;;;;;2.67;2.47;;;;;;;;;;5019962;28;20065;-79
2022/12/15 06:34:13;;;;;;;0.32;0.25;;;;;;;;;;5028388;28;20408;-80
2022/12/15 06:36:39;;;;;;;0.20;0.10;;;;;;;;;;5020989;28;20047;-80
2022/12/15 06:39:08;;;;;;;0.20;0.10;;;;;;;;;;5026325;28;20402;-80
2022/12/15 06:47:09;;;;;;;0.20;0.10;;;;;;;;;;4985397;28;20053;-85
2022/12/15 06:49:43;;;;;;;0.20;0.10;;;;;;;;;;4969096;28;20070;-84
2022/12/15 06:52:18;;;;;;;0.20;0.20;;;;;;;;;;4998675;28;20042;-84
2022/12/15 06:54:47;;;;;;;0.20;0.10;;;;;;;;;;4975097;28;20130;-84
2022/12/15 06:57:43;;;;;;;;;;;;;;;;;;;;;
2022/12/15 07:00:22;;;;;;;0.20;0.10;;;;;;;;;;4972862;28;20537;-85
2022/12/15 07:02:54;;;;;;;0.20;0.10;;;;;;;;;;4959969;28;20046;-84
2022/12/15 07:05:26;;;;;;;0.20;0.10;;;;;;;;;;4974515;28;20047;-84
2022/12/15 07:08:14;;;;;;;0.20;0.10;;;;;;;;;;4952662;28;20451;-84
2022/12/15 07:10:43;;;;;;;0.20;0.10;;;;;;;;;;4969193;28;20042;-83
2022/12/15 07:16:28;;;;;;;0.63;0.63;;;;;;;;;;4978651;28;20045;-83
2022/12/15 07:19:21;;;;;;;0.20;0.20;;;;;;;;;;4992249;28;20093;-85
2022/12/15 07:21:47;;;;;;;0.20;0.13;;;;;;;;;;4961343;28;20046;-85
2022/12/15 07:24:28;;;;;;;0.20;0.10;;;;;;;;;;4977055;28;20049;-83
2022/12/15 07:26:57;;;;;;;0.20;0.10;;;;;;;;;;4989492;28;20126;-85
2022/12/15 07:29:47;;;;;;;0.20;0.10;;;;;;;;;;4939723;28;20143;-84
2022/12/15 07:32:21;;;;;;;0.50;0.50;;;;;;;;;;4974869;28;20136;-83
2022/12/15 07:34:53;;;;;;;3.88;3.63;;;;;;;;;;4974680;28;20058;-83
2022/12/15 07:37:23;;;;;;;0.20;0.10;;;;;;;;;;4975072;28;21268;-83
2022/12/15 07:39:52;;;;;;;0.20;0.20;;;;;;;;;;4977272;28;20039;-84
2022/12/15 07:42:57;;;;;;;0.28;0.28;;;;;;;;;;4960971;28;20543;-84
2022/12/15 07:45:53;;;;;;;0.20;0.10;;;;;;;;;;4856654;29;20127;-84
2022/12/15 07:48:43;;;;;;;0.20;0.10;;;;;;;;;;4976764;28;20583;-85
2022/12/15 07:51:14;;;;;;;0.20;0.10;;;;;;;;;;4967294;28;20045;-85
2022/12/15 07:53:45;;;;;;;0.20;0.10;;;;;;;;;;4995559;28;20082;-84
2022/12/15 07:56:46;;;;;;;0.20;0.10;;;;;;;;;;4993578;28;20461;-85
2022/12/15 07:59:33;;;;;;;0.20;0.10;;;;;;;;;;4979577;28;20066;-85
2022/12/15 08:02:06;;;;;;;0.20;0.10;;;;;;;;;;4978153;28;20070;-85
2022/12/15 08:04:32;;;;;;;0.60;0.60;;;;;;;;;;4995857;28;20039;-84
2022/12/15 08:06:58;;;;;;;4.57;1.27;;;;;;;;;;4961270;28;20046;-84
2022/12/15 08:09:31;;;;;;;0.20;0.10;;;;;;;;;;4963746;28;20053;-85
2022/12/15 08:12:36;;;;;;;;;;;;;;;;;;;;;
2022/12/15 08:15:02;;;;;;;0.20;0.10;;;;;;;;;;4977782;28;20050;-84
2022/12/15 08:17:29;;;;;;;0.20;0.10;;;;;;;;;;4978796;28;20387;-85
2022/12/15 08:20:02;;;;;;;0.20;0.10;;;;;;;;;;4961166;28;20094;-83
2022/12/15 08:22:48;;;;;;;1.17;1.17;;;;;;;;;;4979751;28;20054;-83
2022/12/15 08:25:21;;;;;;;0.20;0.10;;;;;;;;;;4994047;28;20509;-84
2022/12/15 08:27:59;;;;;;;0.20;0.10;;;;;;;;;;4980180;28;20038;-83
2022/12/15 08:30:51;;;;;;;2.30;0.90;;;;;;;;;;4998430;28;20057;-84
2022/12/15 08:33:20;;;;;;;0.20;0.10;;;;;;;;;;4977627;28;20193;-83
2022/12/15 08:36:10;;;;;;;0.20;0.10;;;;;;;;;;4963291;28;20651;-83
2022/12/15 08:38:40;;;;;;;0.20;0.10;;;;;;;;;;4997042;28;20042;-84
2022/12/15 08:41:09;;;;;;;0.20;0.20;;;;;;;;;;4974158;28;20041;-82
2022/12/15 08:43:38;;;;;;;0.20;0.10;;;;;;;;;;4980623;28;20038;-85
2022/12/15 08:48:59;;;;;;;0.20;0.10;;;;;;;;;;4957002;28;20034;-83
2022/12/15 08:51:35;;;;;;;0.20;0.10;;;;;;;;;;4968963;28;20098;-83
2022/12/15 08:54:03;;;;;;;0.20;0.10;;;;;;;;;;4980504;28;20520;-83
2022/12/15 08:56:29;;;;;;;0.20;0.10;;;;;;;;;;4963300;28;20039;-84
2022/12/15 08:58:57;;;;;;;0.20;0.10;;;;;;;;;;4963592;28;20038;-83
2022/12/15 09:01:24;;;;;;;0.20;0.15;;;;;;;;;;4964828;28;20046;-83
2022/12/15 09:03:51;;;;;;;0.20;0.20;;;;;;;;;;4981231;28;20043;-83
2022/12/15 09:06:18;;;;;;;0.20;0.10;;;;;;;;;;4979489;28;20145;-83
2022/12/15 09:08:44;;;;;;;0.20;0.20;;;;;;;;;;4982325;28;20035;-83
2022/12/15 09:11:11;;;;;;;1.08;1.05;;;;;;;;;;4984689;28;20054;-84
2022/12/15 09:13:38;;;;;;;1.38;1.27;;;;;;;;;;4983254;28;20056;-83
2022/12/15 09:16:05;;;;;;;0.20;0.10;;;;;;;;;;5001189;28;20042;-81
2022/12/15 09:18:32;;;;;;;0.20;0.10;;;;;;;;;;4982131;28;20104;-82
2022/12/15 09:21:02;;;;;;;0.20;0.10;;;;;;;;;;4975872;28;21610;-81
2022/12/15 09:23:28;;;;;;;0.20;0.20;;;;;;;;;;4957337;28;20298;-81
2022/12/15 09:26:05;;;;;;;0.20;0.20;;;;;;;;;;4982411;28;20154;-82
2022/12/15 09:28:31;;;;;;;0.20;0.10;;;;;;;;;;4983767;28;20056;-81
2022/12/15 09:31:08;;;;;;;0.20;0.10;;;;;;;;;;4961759;28;20113;-81
2022/12/15 09:33:35;;;;;;;0.20;0.17;;;;;;;;;;4980528;28;20096;-80
2022/12/15 09:36:02;;;;;;;0.20;0.10;;;;;;;;;;4976693;28;20541;-81
2022/12/15 09:38:28;;;;;;;0.20;0.10;;;;;;;;;;4977979;28;20053;-81
2022/12/15 09:40:54;;;;;;;0.20;0.10;;;;;;;;;;4977370;28;20046;-81
2022/12/15 09:43:23;;;;;;;0.20;0.10;;;;;;;;;;4974975;28;20158;-81
2022/12/15 09:45:58;;;;;;;0.20;0.10;;;;;;;;;;4976301;28;20286;-81
2022/12/15 09:48:28;;;;;;;0.20;0.10;;;;;;;;;;4990639;28;20519;-80
2022/12/15 09:50:56;;;;;;;0.20;0.10;;;;;;;;;;4974691;28;20034;-81
2022/12/15 09:53:24;;;;;;;0.30;0.30;;;;;;;;;;4971977;28;20609;-80
2022/12/15 09:56:00;;;;;;;1.75;1.65;;;;;;;;;;4974709;28;20081;-80
2022/12/15 09:58:45;;;;;;;0.20;0.10;;;;;;;;;;4982039;28;20045;-80
2022/12/15 10:01:23;;;;;;;0.20;0.13;;;;;;;;;;4965160;28;20092;-80
2022/12/15 10:04:01;;;;;;;0.20;0.10;;;;;;;;;;4979515;28;20043;-81
2022/12/15 10:06:32;;;;;;;0.20;0.10;;;;;;;;;;4977418;28;20214;-80
2022/12/15 10:09:00;;;;;;;0.43;0.35;;;;;;;;;;4996141;28;20470;-81
2022/12/15 10:11:32;;;;;;;1.48;1.38;;;;;;;;;;4970540;28;20042;-81
2022/12/15 10:14:02;;;;;;;0.20;0.10;;;;;;;;;;4974873;28;20038;-81
2022/12/15 10:16:34;;;;;;;0.40;0.40;;;;;;;;;;4976680;28;20145;-82
2022/12/15 10:19:01;;;;;;;0.20;0.10;;;;;;;;;;4973927;28;20153;-82
2022/12/15 10:21:28;;;;;;;0.20;0.10;;;;;;;;;;4972045;28;20424;-82
2022/12/15 10:23:57;;;;;;;1.05;0.95;;;;;;;;;;4972323;28;20053;-81
2022/12/15 10:26:25;;;;;;;1.30;1.20;;;;;;;;;;4974634;28;20122;-82
2022/12/15 10:29:00;;;;;;;0.20;0.20;;;;;;;;;;4956457;28;20039;-82
2022/12/15 10:31:40;;;;;;;0.20;0.20;;;;;;;;;;4961750;28;20093;-82
2022/12/15 10:34:10;;;;;;;0.20;0.10;;;;;;;;;;4978067;28;20794;-82
2022/12/15 10:36:36;;;;;;;0.20;0.10;;;;;;;;;;4978428;28;20049;-84
2022/12/15 10:39:02;;;;;;;0.20;0.10;;;;;;;;;;4975821;28;20038;-82
2022/12/15 10:41:31;;;;;;;0.40;0.40;;;;;;;;;;4974412;28;20043;-82
2022/12/15 10:43:57;;;;;;;0.20;0.20;;;;;;;;;;4974859;28;20128;-82
2022/12/15 10:46:27;;;;;;;0.20;0.10;;;;;;;;;;4972195;28;20039;-82
2022/12/15 10:48:58;;;;;;;0.20;0.10;;;;;;;;;;4961347;28;20050;-83
2022/12/15 10:51:30;;;;;;;0.20;0.10;;;;;;;;;;4973087;28;20126;-83
2022/12/15 10:54:03;;;;;;;0.20;0.17;;;;;;;;;;4971795;28;20948;-85
2022/12/15 10:56:29;;;;;;;1.17;0.88;;;;;;;;;;4979159;28;20604;-87
2022/12/15 10:58:56;;;;;;;0.20;0.10;;;;;;;;;;4976737;28;20142;-85
2022/12/15 11:01:40;;;;;;;0.20;0.10;;;;;;;;;;4960558;28;20034;-84
2022/12/15 11:04:39;;;;;;;0.63;0.52;;;;;;;;;;4974927;28;20030;-85
2022/12/15 11:07:24;;;;;;;0.20;0.13;;;;;;;;;;4976062;28;20118;-82
2022/12/15 11:10:17;;;;;;;0.20;0.10;;;;;;;;;;4953377;28;20035;-83
2022/12/15 11:12:53;;;;;;;0.20;0.10;;;;;;;;;;4959531;28;20429;-83
2022/12/15 11:15:24;;;;;;;0.40;0.40;;;;;;;;;;4957205;28;20050;-82
2022/12/15 11:18:15;;;;;;;0.20;0.10;;;;;;;;;;4991033;28;20037;-83
2022/12/15 11:20:43;;;;;;;0.30;0.30;;;;;;;;;;4955227;28;20418;-84
2022/12/15 11:23:21;;;;;;;0.20;0.13;;;;;;;;;;4972041;28;20110;-83
2022/12/15 11:25:53;;;;;;;0.20;0.10;;;;;;;;;;4983804;28;20113;-85
2022/12/15 11:28:26;;;;;;;0.20;0.10;;;;;;;;;;4960867;28;20050;-85
2022/12/15 11:31:14;;;;;;;0.50;0.50;;;;;;;;;;4974742;28;20074;-86
2022/12/15 11:33:40;;;;;;;0.20;0.10;;;;;;;;;;4973850;28;20049;-83
2022/12/15 11:36:13;;;;;;;0.20;0.10;;;;;;;;;;4961471;28;20043;-85
2022/12/15 11:39:00;;;;;;;0.45;0.45;;;;;;;;;;4972976;28;20043;-83
2022/12/15 11:41:32;;;;;;;0.20;0.10;;;;;;;;;;4989476;28;20385;-83
2022/12/15 11:44:01;;;;;;;0.20;0.10;;;;;;;;;;4977506;28;20421;-85
2022/12/15 11:46:30;;;;;;;0.22;0.13;;;;;;;;;;4954920;28;20574;-84
2022/12/15 11:49:19;;;;;;;0.20;0.10;;;;;;;;;;4975275;28;20113;-84
2022/12/15 11:52:03;;;;;;;1.08;1.05;;;;;;;;;;4976317;28;20059;-83
2022/12/15 11:54:53;;;;;;;0.20;0.10;;;;;;;;;;4982722;28;20429;-86
2022/12/15 11:57:34;;;;;;;0.20;0.10;;;;;;;;;;4977110;28;20105;-83
2022/12/15 12:00:15;;;;;;;0.20;0.10;;;;;;;;;;4959716;28;20047;-84
2022/12/15 12:02:56;;;;;;;0.35;0.35;;;;;;;;;;4974408;28;20113;-84
2022/12/15 12:05:28;;;;;;;0.20;0.10;;;;;;;;;;4973066;28;20042;-84
2022/12/15 12:07:54;;;;;;;0.20;0.10;;;;;;;;;;4957075;28;20382;-84
2022/12/15 12:10:26;;;;;;;0.20;0.10;;;;;;;;;;4954875;28;20054;-83
2022/12/15 12:12:59;;;;;;;0.20;0.10;;;;;;;;;;4959927;28;20046;-85
2022/12/15 12:15:31;;;;;;;3.60;0.80;;;;;;;;;;4976212;28;20039;-85
2022/12/15 12:18:16;;;;;;;0.22;0.22;;;;;;;;;;4971760;28;20054;-83
2022/12/15 12:20:49;;;;;;;0.20;0.10;;;;;;;;;;4975976;28;20046;-84
2022/12/15 12:23:24;;;;;;;0.20;0.10;;;;;;;;;;4959817;28;20092;-85
2022/12/15 12:26:10;;;;;;;0.20;0.10;;;;;;;;;;4956420;28;20039;-84
2022/12/15 12:28:47;;;;;;;0.20;0.10;;;;;;;;;;4965069;28;20052;-84
2022/12/15 12:31:28;;;;;;;0.20;0.10;;;;;;;;;;4958961;28;20046;-82
2022/12/15 12:33:57;;;;;;;0.20;0.10;;;;;;;;;;4962307;28;20448;-82
2022/12/15 12:36:23;;;;;;;0.20;0.10;;;;;;;;;;4975001;28;20046;-82
2022/12/15 12:38:51;;;;;;;0.20;0.10;;;;;;;;;;4974937;28;20524;-83
2022/12/15 12:41:30;;;;;;;0.20;0.10;;;;;;;;;;4977130;28;20034;-84
2022/12/15 12:43:59;;;;;;;0.20;0.20;;;;;;;;;;4963728;28;20106;-86
2022/12/15 12:46:31;;;;;;;0.20;0.10;;;;;;;;;;5027077;22;20057;-78
2022/12/15 12:49:11;;;;;;;0.20;0.13;;;;;;;;;;5034487;28;20052;-80
2022/12/15 12:51:39;;;;;;;0.20;0.10;;;;;;;;;;5042718;28;20487;-79
2022/12/15 12:54:24;;;;;;;1.42;1.35;;;;;;;;;;5039956;28;20044;-76
2022/12/15 12:56:50;;;;;;;0.20;0.10;;;;;;;;;;5003270;28;20788;-77
2022/12/15 12:59:28;;;;;;;0.20;0.10;;;;;;;;;;5020578;28;20096;-80
2022/12/15 13:02:10;;;;;;;0.20;0.10;;;;;;;;;;5033741;28;20088;-79
2022/12/15 13:04:38;;;;;;;0.22;0.15;;;;;;;;;;5003965;28;20045;-79
2022/12/15 13:07:05;;;;;;;0.30;0.30;;;;;;;;;;5004238;28;20049;-76
2022/12/15 13:09:39;;;;;;;0.20;0.10;;;;;;;;;;5005747;28;20087;-78
2022/12/15 13:12:25;;;;;;;0.20;0.10;;;;;;;;;;5024189;28;20046;-78
2022/12/15 13:14:53;;;;;;;0.20;0.10;;;;;;;;;;5029279;28;20092;-78
2022/12/15 13:17:23;;;;;;;0.20;0.10;;;;;;;;;;5020998;28;20037;-78
2022/12/15 13:19:58;;;;;;;0.20;0.10;;;;;;;;;;5022159;28;20048;-79
2022/12/15 13:22:30;;;;;;;0.20;0.10;;;;;;;;;;5030816;28;20105;-78
2022/12/15 13:24:56;;;;;;;0.20;0.10;;;;;;;;;;5010615;28;20048;-79
2022/12/15 13:27:23;;;;;;;0.20;0.10;;;;;;;;;;5015833;28;20292;-77
2022/12/15 13:29:57;;;;;;;0.20;0.10;;;;;;;;;;5032646;28;20038;-79
2022/12/15 13:32:27;;;;;;;0.20;0.10;;;;;;;;;;5020244;28;20042;-78
2022/12/15 13:34:53;;;;;;;0.20;0.10;;;;;;;;;;5018814;28;20073;-79
2022/12/15 13:37:38;;;;;;;2.83;2.60;;;;;;;;;;5018147;28;20049;-78
2022/12/15 13:40:24;;;;;;;0.95;0.95;;;;;;;;;;5023109;28;20117;-77
2022/12/15 13:42:57;;;;;;;0.20;0.20;;;;;;;;;;5026395;28;20042;-79
2022/12/15 13:45:34;;;;;;;0.20;0.10;;;;;;;;;;5032089;28;20511;-79
2022/12/15 13:48:01;;;;;;;0.20;0.10;;;;;;;;;;5020212;28;20566;-79
2022/12/15 13:50:38;;;;;;;0.20;0.10;;;;;;;;;;5031431;28;21247;-76
2022/12/15 13:53:09;;;;;;;0.28;0.25;;;;;;;;;;5010876;28;20056;-77
2022/12/15 13:55:37;;;;;;;0.20;0.10;;;;;;;;;;5018768;28;20038;-77
2022/12/15 13:58:14;;;;;;;0.20;0.10;;;;;;;;;;5017248;28;20118;-77
2022/12/15 14:00:47;;;;;;;0.40;0.40;;;;;;;;;;5005357;28;20378;-77
2022/12/15 14:03:14;;;;;;;0.20;0.10;;;;;;;;;;5035457;28;20041;-79
2022/12/15 14:05:41;;;;;;;0.20;0.10;;;;;;;;;;5019992;28;20424;-79
2022/12/15 14:08:14;;;;;;;0.20;0.10;;;;;;;;;;5020936;28;20048;-79
2022/12/15 14:10:46;;;;;;;0.20;0.17;;;;;;;;;;5018117;28;20040;-78
2022/12/15 14:13:14;;;;;;;0.20;0.10;;;;;;;;;;5018546;28;20049;-79
2022/12/15 14:15:42;;;;;;;0.20;0.10;;;;;;;;;;5031641;28;20049;-79
2022/12/15 14:18:21;;;;;;;0.20;0.10;;;;;;;;;;5020077;28;20720;-77
2022/12/15 14:20:47;;;;;;;0.20;0.17;;;;;;;;;;5024088;28;20269;-80
2022/12/15 14:23:30;;;;;;;0.20;0.10;;;;;;;;;;5021121;28;20033;-80
2022/12/15 14:26:02;;;;;;;0.20;0.10;;;;;;;;;;5011997;28;20467;-79
2022/12/15 14:28:30;;;;;;;0.20;0.10;;;;;;;;;;5022683;28;20416;-80
2022/12/15 14:30:57;;;;;;;0.20;0.10;;;;;;;;;;5025470;28;20049;-78
2022/12/15 14:33:23;;;;;;;0.20;0.10;;;;;;;;;;5017217;28;20042;-78
2022/12/15 14:35:51;;;;;;;0.20;0.10;;;;;;;;;;5006902;28;20471;-79
2022/12/15 14:38:20;;;;;;;0.68;0.68;;;;;;;;;;5038039;28;20034;-80
2022/12/15 14:40:48;;;;;;;0.20;0.10;;;;;;;;;;5016958;28;20457;-79
2022/12/15 14:43:18;;;;;;;0.20;0.10;;;;;;;;;;5020405;28;20040;-79
2022/12/15 14:45:44;;;;;;;0.20;0.10;;;;;;;;;;5002396;28;20041;-80
2022/12/15 14:48:16;;;;;;;0.20;0.10;;;;;;;;;;4999816;28;20045;-79
2022/12/15 14:50:45;;;;;;;0.20;0.10;;;;;;;;;;5003810;28;20068;-79
2022/12/15 14:53:14;;;;;;;0.20;0.20;;;;;;;;;;5000253;28;20084;-80
2022/12/15 14:55:40;;;;;;;0.20;0.10;;;;;;;;;;5016902;28;20069;-79
2022/12/15 14:58:25;;;;;;;0.20;0.10;;;;;;;;;;5017194;28;20049;-77
2022/12/15 15:00:52;;;;;;;0.20;0.10;;;;;;;;;;5022932;28;20129;-77
2022/12/15 15:03:21;;;;;;;0.20;0.10;;;;;;;;;;5038826;28;20033;-79
2022/12/15 15:05:56;;;;;;;0.55;0.55;;;;;;;;;;5018517;28;20037;-78
2022/12/15 15:08:27;;;;;;;0.20;0.10;;;;;;;;;;5023928;28;20049;-78
2022/12/15 15:10:55;;;;;;;0.20;0.10;;;;;;;;;;5024955;28;20041;-79
2022/12/15 15:13:22;;;;;;;0.20;0.10;;;;;;;;;;5010301;28;20045;-77
2022/12/15 15:15:53;;;;;;;0.20;0.10;;;;;;;;;;5027129;28;20507;-78
2022/12/15 15:18:22;;;;;;;0.20;0.10;;;;;;;;;;5025413;28;20041;-77
2022/12/15 15:21:00;;;;;;;0.20;0.10;;;;;;;;;;5006499;28;20041;-78
2022/12/15 15:23:26;;;;;;;0.20;0.10;;;;;;;;;;5017364;28;20049;-77
2022/12/15 15:25:57;;;;;;;0.20;0.20;;;;;;;;;;5035922;28;20045;-76
2022/12/15 15:28:27;;;;;;;0.20;0.10;;;;;;;;;;5009613;28;20037;-77
2022/12/15 15:30:59;;;;;;;0.20;0.10;;;;;;;;;;5023254;28;20045;-79
2022/12/15 15:33:28;;;;;;;0.20;0.10;;;;;;;;;;5044884;28;20132;-77
2022/12/15 15:35:58;;;;;;;0.30;0.30;;;;;;;;;;5021702;28;20041;-78
2022/12/15 15:38:27;;;;;;;0.20;0.10;;;;;;;;;;5023935;28;20057;-76
2022/12/15 15:40:55;;;;;;;0.63;0.50;;;;;;;;;;5024768;28;20033;-78
2022/12/15 15:43:21;;;;;;;0.20;0.20;;;;;;;;;;5038037;28;20044;-78
2022/12/15 15:45:48;;;;;;;0.28;0.20;;;;;;;;;;5025356;28;20689;-78
2022/12/15 15:48:16;;;;;;;0.20;0.10;;;;;;;;;;5019615;28;20108;-77
2022/12/15 15:50:43;;;;;;;0.20;0.10;;;;;;;;;;5024457;28;20048;-78
2022/12/15 15:53:14;;;;;;;0.20;0.10;;;;;;;;;;5023051;28;20045;-77
2022/12/15 15:55:41;;;;;;;0.20;0.10;;;;;;;;;;5001887;28;20145;-77
2022/12/15 15:58:11;;;;;;;0.20;0.10;;;;;;;;;;4999704;28;20044;-78
2022/12/15 16:00:37;;;;;;;0.68;0.68;;;;;;;;;;4994583;28;20125;-79
2022/12/15 16:03:03;;;;;;;0.20;0.10;;;;;;;;;;5035406;28;20069;-77
2022/12/15 16:05:29;;;;;;;0.20;0.10;;;;;;;;;;5017052;28;20092;-78
2022/12/15 16:08:00;;;;;;;0.20;0.10;;;;;;;;;;5035719;28;20037;-78
2022/12/15 16:10:27;;;;;;;0.20;0.10;;;;;;;;;;5021619;28;20073;-79
2022/12/15 16:12:54;;;;;;;0.20;0.20;;;;;;;;;;5040549;28;20053;-77
2022/12/15 16:15:22;;;;;;;0.28;0.28;;;;;;;;;;5018737;28;20412;-78
2022/12/15 16:17:48;;;;;;;0.25;0.22;;;;;;;;;;5004009;28;20033;-78
2022/12/15 16:20:16;;;;;;;0.82;0.77;;;;;;;;;;5023010;28;20488;-78
2022/12/15 16:22:43;;;;;;;0.20;0.10;;;;;;;;;;5003416;28;20038;-77
2022/12/15 16:25:18;;;;;;;0.20;0.10;;;;;;;;;;5026829;28;20124;-78
2022/12/15 16:27:44;;;;;;;0.20;0.20;;;;;;;;;;5032918;28;20049;-76
2022/12/15 16:30:15;;;;;;;0.20;0.17;;;;;;;;;;5014052;28;20041;-78
2022/12/15 16:32:41;;;;;;;0.20;0.10;;;;;;;;;;5022881;28;20057;-76
2022/12/15 16:35:07;;;;;;;0.95;0.95;;;;;;;;;;5026790;28;20103;-77
2022/12/15 16:37:35;;;;;;;0.20;0.17;;;;;;;;;;5021797;28;20041;-77
2022/12/15 16:40:01;;;;;;;1.48;1.38;;;;;;;;;;5012064;28;20033;-78
2022/12/15 16:42:27;;;;;;;0.43;0.40;;;;;;;;;;5009500;28;20446;-78
2022/12/15 16:44:53;;;;;;;0.20;0.10;;;;;;;;;;5026043;28;20095;-76
2022/12/15 16:47:19;;;;;;;0.20;0.10;;;;;;;;;;5029929;28;20053;-77
2022/12/15 16:49:45;;;;;;;0.20;0.10;;;;;;;;;;5050199;28;20037;-78
2022/12/15 16:52:18;;;;;;;0.20;0.10;;;;;;;;;;5019884;28;20056;-78
2022/12/15 16:54:47;;;;;;;0.25;0.25;;;;;;;;;;5042721;28;20041;-77
2022/12/15 16:57:13;;;;;;;0.20;0.20;;;;;;;;;;5019934;28;20048;-77
2022/12/15 16:59:39;;;;;;;0.20;0.10;;;;;;;;;;5013165;28;20037;-77
2022/12/15 17:02:35;;;;;;;0.20;0.20;;;;;;;;;;5022225;28;20168;-77
2022/12/15 17:05:01;;;;;;;5.40;4.57;;;;;;;;;;4998440;28;20053;-78
2022/12/15 17:07:28;;;;;;;0.20;0.20;;;;;;;;;;5009346;28;20073;-78
2022/12/15 17:09:54;;;;;;;0.20;0.10;;;;;;;;;;5027570;28;20042;-78
2022/12/15 17:12:20;;;;;;;0.50;0.50;;;;;;;;;;5018777;28;20052;-77
2022/12/15 17:14:46;;;;;;;1.00;0.82;;;;;;;;;;5020387;28;20542;-78
2022/12/15 17:17:16;;;;;;;0.57;0.57;;;;;;;;;;5026386;28;20044;-79
2022/12/15 17:19:42;;;;;;;0.85;0.85;;;;;;;;;;5023792;28;20526;-77
2022/12/15 17:22:11;;;;;;;0.20;0.10;;;;;;;;;;5041433;28;20029;-78
2022/12/15 17:24:37;;;;;;;0.20;0.10;;;;;;;;;;5023854;28;20110;-78
2022/12/15 17:27:04;;;;;;;3.63;3.40;;;;;;;;;;5010170;28;20037;-78
2022/12/15 17:29:30;;;;;;;0.20;0.10;;;;;;;;;;5028830;28;20056;-78
2022/12/15 17:31:56;;;;;;;1.75;1.17;;;;;;;;;;5010837;28;20545;-79
2022/12/15 17:34:26;;;;;;;0.20;0.10;;;;;;;;;;5027281;28;20128;-79
2022/12/15 17:36:52;;;;;;;0.20;0.10;;;;;;;;;;5019788;28;20508;-78
2022/12/15 17:39:18;;;;;;;0.20;0.10;;;;;;;;;;5026049;28;20076;-77
2022/12/15 17:41:44;;;;;;;0.20;0.10;;;;;;;;;;5022759;28;20033;-78
2022/12/15 17:44:17;;;;;;;0.20;0.10;;;;;;;;;;5000291;28;20033;-78
2022/12/15 17:46:44;;;;;;;0.20;0.10;;;;;;;;;;5019916;28;20045;-78